Time;durP1;ratioP1;P1;durP2;ratioP2;P2;SDS_P1;SDS_P2;PMS_P1;PMS_P2;Temp;Humidity;BMP_temperature;BMP_pressure;BME280_temperature;BME280_humidity;BME280_pressure;Samples;Min_cycle;Max_cycle;Signal;HPM_P1;HPM_P2
2023/01/02 00:02:03;;;;;;;18.33;11.47;;;;;;;8.06;82.92;99492.59;2240487;79;20894;-80
2023/01/02 00:05:04;;;;;;;17.53;10.63;;;;;;;7.97;82.51;99501.86;2240432;79;20870;-80
2023/01/02 00:08:04;;;;;;;19.27;11.27;;;;;;;7.88;82.77;99495.48;2240727;79;21024;-81
2023/01/02 00:11:05;;;;;;;21.00;10.50;;;;;;;7.76;82.65;99496.34;2241289;79;20897;-80
2023/01/02 00:14:05;;;;;;;17.20;10.73;;;;;;;7.63;82.51;99493.75;2241263;79;21261;-80
2023/01/02 00:17:05;;;;;;;16.70;10.50;;;;;;;7.52;82.91;99497.70;2241220;79;20937;-81
2023/01/02 00:20:06;;;;;;;17.07;10.63;;;;;;;7.39;83.01;99500.70;2241500;79;20938;-80
2023/01/02 00:23:06;;;;;;;19.20;10.50;;;;;;;7.26;83.38;99498.98;2241216;79;21320;-80
2023/01/02 00:26:07;;;;;;;17.17;10.70;;;;;;;7.17;83.83;99499.07;2241492;79;20909;-79
2023/01/02 00:29:07;;;;;;;16.53;10.60;;;;;;;7.07;84.14;99497.86;2241207;79;20997;-80
2023/01/02 00:32:07;;;;;;;20.20;9.83;;;;;;;6.99;84.62;99502.77;2240872;79;21378;-81
2023/01/02 00:35:08;;;;;;;16.47;10.57;;;;;;;6.93;84.49;99507.70;2241273;79;20913;-80
2023/01/02 00:38:08;;;;;;;14.13;10.00;;;;;;;6.85;84.57;99509.14;2241442;79;20885;-81
2023/01/02 00:41:09;;;;;;;19.53;9.93;;;;;;;6.77;84.63;99510.56;2241258;79;21396;-81
2023/01/02 00:44:09;;;;;;;15.80;9.53;;;;;;;6.67;85.05;99508.45;2241318;79;20853;-80
2023/01/02 00:47:09;;;;;;;17.83;10.33;;;;;;;6.59;85.17;99513.77;2240980;79;21008;-81
2023/01/02 00:50:10;;;;;;;18.97;10.63;;;;;;;6.52;85.51;99510.46;2241296;79;20957;-80
2023/01/02 00:53:10;;;;;;;17.37;9.60;;;;;;;6.45;85.72;99509.76;2241213;79;21389;-80
2023/01/02 00:56:11;;;;;;;16.33;10.10;;;;;;;6.38;85.96;99512.11;2241259;79;21281;-81
2023/01/02 00:59:11;;;;;;;15.13;9.20;;;;;;;6.31;86.15;99507.52;2241389;79;21279;-79
2023/01/02 01:02:11;;;;;;;19.27;9.17;;;;;;;6.24;85.96;99505.92;2241563;79;21006;-81
2023/01/02 01:05:12;;;;;;;19.27;9.53;;;;;;;6.15;85.64;99508.15;2241071;79;21273;-80
2023/01/02 01:08:12;;;;;;;19.17;9.60;;;;;;;6.05;85.81;99495.20;2241746;79;20897;-79
2023/01/02 01:11:13;;;;;;;15.20;9.80;;;;;;;5.97;86.21;99491.42;2241673;79;20925;-80
2023/01/02 01:14:13;;;;;;;19.17;10.00;;;;;;;5.89;85.88;99486.30;2241543;79;21322;-80
2023/01/02 01:17:13;;;;;;;16.90;9.67;;;;;;;5.83;86.51;99484.77;2241282;79;20965;-80
2023/01/02 01:20:14;;;;;;;16.23;10.23;;;;;;;5.80;86.98;99486.81;2241640;79;20910;-80
2023/01/02 01:23:14;;;;;;;19.30;10.23;;;;;;;5.75;87.07;99493.11;2241876;79;20949;-80
2023/01/02 01:26:15;;;;;;;17.97;10.87;;;;;;;5.72;87.52;99490.80;2241278;79;20906;-80
2023/01/02 01:29:15;;;;;;;23.10;10.27;;;;;;;5.70;87.87;99490.73;2241431;79;20921;-79
2023/01/02 01:32:15;;;;;;;17.17;9.67;;;;;;;5.72;88.25;99494.27;2241320;79;21294;-79
2023/01/02 01:35:16;;;;;;;17.40;9.90;;;;;;;5.71;88.27;99499.39;2241699;79;20913;-80
2023/01/02 01:38:16;;;;;;;19.50;10.57;;;;;;;5.74;89.54;99491.34;2241766;79;20889;-81
2023/01/02 01:41:17;;;;;;;21.77;10.93;;;;;;;5.75;88.70;99490.52;2241239;79;21333;-81
2023/01/02 01:44:17;;;;;;;15.73;9.57;;;;;;;5.80;89.65;99493.30;2241331;79;20948;-81
2023/01/02 01:47:17;;;;;;;17.37;10.13;;;;;;;5.82;89.61;99492.06;2241011;79;20988;-80
2023/01/02 01:50:18;;;;;;;22.13;10.83;;;;;;;5.80;89.67;99486.81;2241532;79;20972;-81
2023/01/02 01:53:18;;;;;;;18.33;11.00;;;;;;;5.78;89.80;99481.10;2241190;79;20933;-80
2023/01/02 01:56:19;;;;;;;18.67;10.67;;;;;;;5.79;90.68;99479.87;2241172;79;21286;-81
2023/01/02 01:59:21;;;;;;;17.70;10.83;;;;;;;5.88;90.70;99481.53;2219000;79;20917;-80
2023/01/02 02:02:21;;;;;;;22.63;11.17;;;;;;;5.92;90.69;99479.58;2241342;79;21376;-81
2023/01/02 02:05:22;;;;;;;22.03;11.30;;;;;;;5.94;90.56;99475.75;2241486;79;20917;-81
2023/01/02 02:08:22;;;;;;;19.37;10.90;;;;;;;6.00;91.34;99464.33;2242900;79;20945;-81
2023/01/02 02:11:23;;;;;;;23.37;12.10;;;;;;;6.16;92.78;99456.78;2242979;79;20945;-81
2023/01/02 02:14:23;;;;;;;24.80;11.73;;;;;;;6.44;93.43;99455.71;2242850;79;20881;-80
2023/01/02 02:17:23;;;;;;;17.00;10.20;;;;;;;6.67;93.53;99463.94;2242062;79;20969;-80
2023/01/02 02:20:24;;;;;;;17.23;10.10;;;;;;;6.69;90.93;99457.50;2241694;79;20913;-81
2023/01/02 02:23:24;;;;;;;19.10;10.10;;;;;;;6.58;89.96;99457.52;2241705;79;21012;-80
2023/01/02 02:26:24;;;;;;;19.47;10.57;;;;;;;6.50;90.01;99458.95;2241935;79;20945;-81
2023/01/02 02:29:25;;;;;;;14.90;9.80;;;;;;;6.38;89.66;99456.36;2241957;79;21305;-81
2023/01/02 02:32:25;;;;;;;16.93;9.73;;;;;;;6.27;89.18;99460.25;2241901;79;20940;-80
2023/01/02 02:35:26;;;;;;;13.93;9.20;;;;;;;6.14;88.89;99459.72;2241656;79;20981;-80
2023/01/02 02:38:26;;;;;;;18.90;9.60;;;;;;;6.02;89.09;99452.31;2241614;79;21309;-80
2023/01/02 02:41:27;;;;;;;15.77;10.20;;;;;;;5.97;89.29;99449.95;2241650;79;20956;-79
2023/01/02 02:44:27;;;;;;;16.93;10.37;;;;;;;5.90;89.22;99446.23;2241635;79;20929;-81
2023/01/02 02:47:27;;;;;;;23.23;12.53;;;;;;;5.85;89.92;99443.84;2252486;79;21035;-81
2023/01/02 02:50:28;;;;;;;19.10;11.73;;;;;;;5.82;90.46;99442.42;2255406;79;21272;-81
2023/01/02 02:53:28;;;;;;;22.23;11.57;;;;;;;5.87;91.16;99438.72;2255215;79;20920;-81
2023/01/02 02:56:29;;;;;;;23.67;12.53;;;;;;;5.91;91.61;99443.23;2255268;79;20905;-80
2023/01/02 02:59:29;;;;;;;21.03;12.80;;;;;;;5.93;92.25;99441.59;2255633;79;20905;-81
2023/01/02 03:02:29;;;;;;;18.97;13.10;;;;;;;5.97;91.93;99430.52;2255336;79;21324;-80
2023/01/02 03:05:30;;;;;;;23.80;13.53;;;;;;;5.95;91.79;99431.75;2255422;79;20909;-81
2023/01/02 03:08:30;;;;;;;20.27;13.20;;;;;;;5.93;91.90;99419.16;2255450;79;21340;-83
2023/01/02 03:11:30;;;;;;;25.20;14.10;;;;;;;5.92;91.61;99426.86;2255345;79;20921;-83
2023/01/02 03:14:31;;;;;;;24.80;13.87;;;;;;;5.87;92.05;99416.70;2256345;79;21008;-82
2023/01/02 03:17:31;;;;;;;28.87;15.33;;;;;;;5.87;92.11;99416.28;2255108;79;20972;-82
2023/01/02 03:20:32;;;;;;;27.80;15.97;;;;;;;5.83;92.41;99414.40;2255260;79;20944;-82
2023/01/02 03:23:32;;;;;;;27.50;16.97;;;;;;;5.85;92.81;99420.94;2255122;79;20999;-82
2023/01/02 03:26:32;;;;;;;27.17;15.53;;;;;;;5.84;92.46;99428.23;2255234;79;20885;-81
2023/01/02 03:29:33;;;;;;;25.20;16.00;;;;;;;5.83;92.59;99425.17;2255184;79;20956;-82
2023/01/02 03:32:33;;;;;;;25.57;16.17;;;;;;;5.81;92.69;99409.57;2254928;79;20937;-82
2023/01/02 03:35:34;;;;;;;27.23;15.17;;;;;;;5.79;92.12;99408.63;2255474;79;20893;-83
2023/01/02 03:38:34;;;;;;;30.77;17.03;;;;;;;5.74;92.45;99399.37;2255345;79;20940;-81
2023/01/02 03:41:34;;;;;;;28.60;17.73;;;;;;;5.73;92.87;99397.61;2255583;79;21316;-80
2023/01/02 03:44:35;;;;;;;32.80;18.77;;;;;;;5.73;92.73;99403.20;2255406;79;20897;-80
2023/01/02 03:47:35;;;;;;;33.83;19.73;;;;;;;5.69;92.86;99398.72;2229059;79;21031;-82
2023/01/02 03:50:36;;;;;;;31.53;19.07;;;;;;;5.67;92.85;99409.44;2221208;80;20998;-80
2023/01/02 03:53:36;;;;;;;32.73;19.20;;;;;;;5.64;92.86;99411.48;2221089;80;20903;-80
2023/01/02 03:56:36;;;;;;;33.73;18.43;;;;;;;5.61;93.21;99412.66;2221292;80;21251;-80
2023/01/02 03:59:37;;;;;;;38.27;21.43;;;;;;;5.57;93.00;99408.18;2220602;80;20974;-80
2023/01/02 04:02:37;;;;;;;34.83;20.40;;;;;;;5.54;93.17;99405.87;2220982;80;20946;-80
2023/01/02 04:05:41;;;;;;;37.57;21.10;;;;;;;5.50;93.39;99404.87;2221027;80;20871;-81
2023/01/02 04:08:41;;;;;;;36.97;20.47;;;;;;;5.48;93.73;99410.39;2220877;80;21301;-81
2023/01/02 04:11:41;;;;;;;32.70;19.80;;;;;;;5.48;94.01;99406.52;2221171;80;21023;-80
2023/01/02 04:14:42;;;;;;;34.17;20.87;;;;;;;5.47;93.42;99401.27;2220953;80;21262;-80
2023/01/02 04:17:42;;;;;;;35.60;20.20;;;;;;;5.47;94.20;99396.09;2220887;80;21107;-80
2023/01/02 04:20:43;;;;;;;33.63;21.57;;;;;;;5.45;93.72;99390.86;2221188;80;20872;-80
2023/01/02 04:23:43;;;;;;;37.17;21.73;;;;;;;5.39;93.70;99385.42;2221008;80;20947;-81
2023/01/02 04:26:43;;;;;;;34.17;20.87;;;;;;;5.36;93.67;99390.48;2220981;80;20930;-80
2023/01/02 04:29:44;;;;;;;37.87;21.73;;;;;;;5.32;93.66;99395.06;2220971;80;21315;-80
2023/01/02 04:32:44;;;;;;;37.80;22.30;;;;;;;5.29;93.63;99393.23;2220520;80;20926;-80
2023/01/02 04:35:44;;;;;;;41.33;22.07;;;;;;;5.25;93.59;99393.03;2220178;80;20951;-80
2023/01/02 04:38:45;;;;;;;38.13;22.47;;;;;;;5.23;93.97;99394.27;2220698;80;20938;-82
2023/01/02 04:41:45;;;;;;;41.67;23.17;;;;;;;5.22;94.23;99401.56;2220397;80;20971;-80
2023/01/02 04:44:46;;;;;;;47.20;22.67;;;;;;;5.24;94.00;99405.09;2219508;80;21038;-80
2023/01/02 04:47:47;;;;;;;38.37;21.93;;;;;;;5.25;94.12;99409.45;2224649;79;20989;-79
2023/01/02 04:50:50;;;;;;;38.70;22.87;;;;;;;5.24;93.89;99408.09;2226531;80;21337;-80
2023/01/02 04:53:51;;;;;;;37.97;23.00;;;;;;;5.18;93.53;99406.09;2226192;80;21322;-79
2023/01/02 04:56:51;;;;;;;39.03;22.10;;;;;;;5.11;93.30;99410.13;2226399;80;20958;-79
2023/01/02 04:59:52;;;;;;;38.87;22.17;;;;;;;5.07;93.29;99412.12;2226147;80;20982;-79
2023/01/02 05:02:54;;;;;;;38.40;22.50;;;;;;;5.02;93.19;99408.45;2226235;80;20997;-80
2023/01/02 05:05:55;;;;;;;38.57;22.30;;;;;;;4.97;93.00;99407.37;2225968;80;20969;-80
2023/01/02 05:08:55;;;;;;;37.23;22.90;;;;;;;4.92;93.13;99411.88;2225418;80;20934;-80
2023/01/02 05:11:56;;;;;;;38.23;23.13;;;;;;;4.90;93.34;99423.45;2225836;80;20902;-79
2023/01/02 05:14:56;;;;;;;35.60;22.47;;;;;;;4.90;93.49;99421.27;2225122;80;20926;-79
2023/01/02 05:17:56;;;;;;;39.63;22.30;;;;;;;4.87;92.81;99425.91;2225664;80;21038;-78
2023/01/02 05:20:57;;;;;;;37.53;22.23;;;;;;;4.75;92.58;99424.08;2225571;80;20970;-79
2023/01/02 05:23:57;;;;;;;40.90;22.80;;;;;;;4.69;92.56;99419.92;2225941;80;20910;-79
2023/01/02 05:26:58;;;;;;;40.03;21.07;;;;;;;4.61;92.30;99427.75;2226774;80;20935;-81
2023/01/02 05:29:58;;;;;;;31.43;21.57;;;;;;;4.52;91.88;99423.47;2227667;80;20957;-80
2023/01/02 05:33:06;;;;;;;35.07;22.77;;;;;;;4.48;92.61;99418.56;2227742;80;20989;-80
2023/01/02 05:36:06;;;;;;;42.13;24.17;;;;;;;4.46;92.35;99417.62;2227353;80;20926;-80
2023/01/02 05:39:07;;;;;;;43.63;23.67;;;;;;;4.44;92.76;99423.13;2226776;80;20958;-80
2023/01/02 05:42:07;;;;;;;41.57;23.77;;;;;;;4.40;92.32;99419.52;2226148;80;21017;-80
2023/01/02 05:45:07;;;;;;;35.10;22.10;;;;;;;4.36;92.35;99414.14;2226704;80;20927;-80
2023/01/02 05:48:08;;;;;;;38.97;23.07;;;;;;;4.31;92.16;99417.77;2233578;79;21389;-79
2023/01/02 05:51:08;;;;;;;39.07;23.27;;;;;;;4.29;92.50;99418.11;2236910;80;21001;-80
2023/01/02 05:54:09;;;;;;;40.27;23.00;;;;;;;4.28;92.57;99409.00;2236658;80;20998;-81
2023/01/02 05:57:09;;;;;;;48.47;29.83;;;;;;;4.26;92.51;99408.05;2236924;80;21334;-80
2023/01/02 06:00:09;;;;;;;58.37;26.97;;;;;;;6.78;100.00;99394.27;2236452;80;20934;-81
2023/01/02 06:03:10;;;;;;;60.03;27.80;;;;;;;9.55;100.00;99389.77;2236009;79;21029;-77
2023/01/02 06:06:10;;;;;;;54.90;26.87;;;;;;;11.13;91.73;99384.52;2235731;79;20925;-76
2023/01/02 06:09:11;;;;;;;39.83;25.50;;;;;;;12.06;85.16;99396.56;2235942;80;20930;-77
2023/01/02 06:12:11;;;;;;;40.43;24.63;;;;;;;12.60;83.47;99399.51;2236546;80;21314;-78
2023/01/02 06:15:11;;;;;;;41.03;25.30;;;;;;;13.00;82.30;99406.13;2237046;80;20949;-78
2023/01/02 06:18:12;;;;;;;41.93;25.07;;;;;;;12.25;73.63;99400.78;2236946;80;21692;-78
2023/01/02 06:21:12;;;;;;;59.83;24.17;;;;;;;10.60;71.97;99405.68;2236193;80;20919;-79
2023/01/02 06:24:15;;;;;;;36.77;23.80;;;;;;;9.32;72.41;99403.92;2236052;79;20980;-78
2023/01/02 06:27:15;;;;;;;40.23;24.60;;;;;;;8.21;73.77;99403.35;2216706;80;20958;-79
2023/01/02 06:30:15;;;;;;;43.40;26.00;;;;;;;7.38;75.54;99393.75;2236637;80;20938;-80
2023/01/02 06:33:16;;;;;;;48.07;26.53;;;;;;;6.72;77.34;99395.34;2236564;79;20970;-82
2023/01/02 06:36:16;;;;;;;43.07;27.90;;;;;;;6.28;79.08;99396.32;2237169;79;20918;-82
2023/01/02 06:39:17;;;;;;;47.60;28.47;;;;;;;5.94;80.75;99387.23;2237302;80;20930;-82
2023/01/02 06:42:17;;;;;;;40.83;25.90;;;;;;;5.67;82.04;99380.94;2236157;80;21420;-82
2023/01/02 06:45:17;;;;;;;47.43;28.53;;;;;;;5.44;83.65;99378.73;2236048;79;20958;-81
2023/01/02 06:48:18;;;;;;;44.87;27.80;;;;;;;5.27;84.49;99381.92;2236483;79;21045;-80
2023/01/02 06:51:18;;;;;;;48.13;29.23;;;;;;;5.15;86.73;99380.50;2236791;80;21590;-82
2023/01/02 06:54:19;;;;;;;44.60;27.93;;;;;;;5.03;87.00;99383.05;2237391;79;20930;-81
2023/01/02 06:57:19;;;;;;;50.07;28.63;;;;;;;4.96;87.74;99382.32;2236825;80;20985;-81
2023/01/02 07:00:19;;;;;;;45.93;29.10;;;;;;;4.89;88.30;99378.11;2236319;80;21614;-81
2023/01/02 07:03:20;;;;;;;45.03;28.80;;;;;;;4.84;89.11;99374.04;2236499;79;20973;-83
2023/01/02 07:06:20;;;;;;;51.70;29.37;;;;;;;4.83;89.38;99371.39;2236966;80;20938;-80
2023/01/02 07:09:21;;;;;;;52.17;31.23;;;;;;;4.89;89.95;99367.36;2236506;79;21317;-82
2023/01/02 07:12:21;;;;;;;47.00;28.03;;;;;;;4.92;90.40;99360.13;2235978;80;20914;-81
2023/01/02 07:15:21;;;;;;;51.13;28.60;;;;;;;4.96;91.19;99364.21;2236102;79;20930;-80
2023/01/02 07:18:22;;;;;;;46.53;28.93;;;;;;;5.01;91.14;99365.28;2236437;80;21460;-80
2023/01/02 07:21:22;;;;;;;51.33;29.57;;;;;;;5.09;91.68;99365.61;2236729;80;21033;-80
2023/01/02 07:24:23;;;;;;;45.97;28.93;;;;;;;5.20;91.70;99372.14;2236836;80;20890;-81
2023/01/02 07:27:23;;;;;;;48.97;29.70;;;;;;;5.29;91.50;99374.22;2235983;79;20985;-82
2023/01/02 07:30:23;;;;;;;46.97;28.47;;;;;;;5.36;91.47;99370.66;2235551;80;20938;-82
2023/01/02 07:33:24;;;;;;;45.57;29.07;;;;;;;5.46;91.51;99373.20;2236421;79;20985;-83
2023/01/02 07:36:24;;;;;;;46.03;27.93;;;;;;;5.54;91.46;99371.80;2236828;79;20930;-83
2023/01/02 07:39:25;;;;;;;49.00;28.23;;;;;;;5.61;91.22;99363.87;2236528;79;20942;-84
2023/01/02 07:42:25;;;;;;;47.13;28.00;;;;;;;5.66;91.08;99365.81;2236526;80;20962;-83
2023/01/02 07:45:25;;;;;;;51.60;28.60;;;;;;;5.73;91.01;99367.82;2236139;80;20967;-81
2023/01/02 07:48:26;;;;;;;50.17;28.30;;;;;;;5.85;90.78;99367.83;2235662;79;21306;-81
2023/01/02 07:51:26;;;;;;;44.73;28.67;;;;;;;5.94;90.74;99361.33;2236069;80;20969;-82
2023/01/02 07:54:27;;;;;;;42.03;27.80;;;;;;;6.08;90.56;99361.88;2236565;79;20938;-82
2023/01/02 07:57:27;;;;;;;46.00;28.23;;;;;;;6.22;90.15;99360.69;2236527;80;21302;-81
2023/01/02 08:00:27;;;;;;;44.67;26.07;;;;;;;6.36;89.91;99357.30;2236718;80;20974;-82
2023/01/02 08:03:28;;;;;;;43.27;28.17;;;;;;;6.48;89.59;99358.16;2236719;80;20957;-83
2023/01/02 08:06:29;;;;;;;48.10;28.27;;;;;;;6.58;89.36;99359.84;2237154;80;20966;-83
2023/01/02 08:09:29;;;;;;;46.30;28.47;;;;;;;6.70;89.09;99362.87;2237153;79;20938;-83
2023/01/02 08:12:29;;;;;;;48.37;29.30;;;;;;;6.78;88.65;99359.24;2237562;79;20891;-84
2023/01/02 08:15:29;;;;;;;46.23;28.73;;;;;;;6.87;88.66;99358.68;2236858;80;21283;-82
2023/01/02 08:18:30;;;;;;;42.30;26.50;;;;;;;6.92;88.34;99354.11;2236291;79;21049;-83
2023/01/02 08:21:30;;;;;;;42.47;27.63;;;;;;;6.97;87.96;99359.08;2236592;79;20945;-84
2023/01/02 08:24:31;;;;;;;40.43;26.70;;;;;;;7.03;87.70;99359.70;2236805;80;20938;-83
2023/01/02 08:27:31;;;;;;;42.10;27.20;;;;;;;7.09;87.74;99357.73;2236980;79;21365;-83
2023/01/02 08:30:32;;;;;;;43.70;27.67;;;;;;;7.16;87.47;99359.70;2237246;80;21042;-84
2023/01/02 08:33:32;;;;;;;46.63;28.17;;;;;;;7.20;87.22;99355.95;2237433;79;20950;-80
2023/01/02 08:36:32;;;;;;;43.63;27.63;;;;;;;7.26;87.07;99355.28;2237357;80;20922;-82
2023/01/02 08:39:33;;;;;;;46.00;29.50;;;;;;;7.30;86.86;99354.13;2237137;80;20958;-82
2023/01/02 08:42:33;;;;;;;44.67;26.93;;;;;;;7.36;86.66;99359.94;2236676;80;21705;-81
2023/01/02 08:45:33;;;;;;;45.00;28.70;;;;;;;7.46;86.37;99348.13;2236717;79;20922;-83
2023/01/02 08:48:34;;;;;;;46.93;28.47;;;;;;;7.46;86.37;99348.13;2236712;79;21013;-81
2023/01/02 08:51:34;;;;;;;48.60;27.77;;;;;;;7.52;86.21;99348.33;2237539;79;20980;-83
2023/01/02 08:54:35;;;;;;;49.37;31.57;;;;;;;7.60;86.07;99347.73;2237171;79;21400;-80
2023/01/02 08:57:35;;;;;;;47.00;28.67;;;;;;;7.70;85.99;99342.83;2237276;80;20930;-81
2023/01/02 09:00:35;;;;;;;41.33;25.63;;;;;;;7.79;85.83;99341.81;2236919;80;20999;-81
2023/01/02 09:03:36;;;;;;;44.97;26.40;;;;;;;7.86;85.42;99343.38;2236221;80;21008;-82
2023/01/02 09:06:36;;;;;;;45.10;26.83;;;;;;;7.90;85.24;99334.84;2236157;79;20962;-83
2023/01/02 09:09:37;;;;;;;44.60;26.30;;;;;;;7.99;85.14;99335.11;2237057;80;20913;-81
2023/01/02 09:12:37;;;;;;;45.30;27.37;;;;;;;8.14;85.03;99335.09;2236587;79;21409;-81
2023/01/02 09:15:37;;;;;;;38.73;24.83;;;;;;;8.27;84.72;99329.41;2237113;79;21015;-82
2023/01/02 09:18:38;;;;;;;41.17;25.87;;;;;;;8.48;84.24;99333.07;2236690;79;20985;-83
2023/01/02 09:21:38;;;;;;;39.87;25.07;;;;;;;8.62;84.00;99322.63;2236943;79;20957;-82
2023/01/02 09:24:39;;;;;;;42.30;23.77;;;;;;;8.79;83.59;99321.38;2237257;80;20930;-81
2023/01/02 09:27:39;;;;;;;44.00;25.60;;;;;;;8.94;83.35;99328.29;2236775;79;21629;-81
2023/01/02 09:30:39;;;;;;;38.07;24.37;;;;;;;9.06;83.15;99332.05;2236737;79;20930;-81
2023/01/02 09:33:40;;;;;;;40.43;25.27;;;;;;;9.12;82.83;99325.69;2236664;79;20894;-80
2023/01/02 09:36:40;;;;;;;41.67;24.13;;;;;;;9.20;82.32;99330.25;2236169;79;21685;-83
2023/01/02 09:39:41;;;;;;;34.90;23.40;;;;;;;9.32;82.32;99319.67;2236242;79;20898;-81
2023/01/02 09:42:41;;;;;;;38.90;23.43;;;;;;;9.45;82.11;99310.88;2236217;80;21003;-83
2023/01/02 09:45:41;;;;;;;40.30;23.83;;;;;;;9.56;81.47;99312.47;2235562;80;21333;-79
2023/01/02 09:48:42;;;;;;;36.33;22.73;;;;;;;9.66;81.22;99303.14;2235527;78;21033;-82
2023/01/02 09:51:42;;;;;;;38.20;22.53;;;;;;;9.73;80.84;99299.39;2235595;80;20903;-80
2023/01/02 09:54:43;;;;;;;33.63;21.73;;;;;;;9.87;80.84;99293.18;2235955;80;20939;-81
2023/01/02 09:57:43;;;;;;;35.47;22.23;;;;;;;10.04;80.48;99295.72;2235660;80;21351;-80
2023/01/02 10:00:43;;;;;;;42.43;23.53;;;;;;;10.21;80.17;99286.55;2235282;79;20895;-81
2023/01/02 10:03:44;;;;;;;33.37;21.47;;;;;;;10.38;80.08;99289.91;2235562;80;20977;-82
2023/01/02 10:06:44;;;;;;;38.57;21.57;;;;;;;10.52;79.04;99285.45;2235586;79;21278;-83
2023/01/02 10:09:45;;;;;;;31.77;21.27;;;;;;;10.64;79.13;99282.19;2235932;79;20986;-82
2023/01/02 10:12:45;;;;;;;37.27;20.60;;;;;;;10.79;79.21;99281.16;2236442;80;20918;-81
2023/01/02 10:15:45;;;;;;;35.67;20.87;;;;;;;10.90;78.36;99277.86;2235931;79;21333;-81
2023/01/02 10:18:46;;;;;;;28.80;18.48;;;;;;;10.99;78.13;99275.41;2236441;79;21014;-81
2023/01/02 10:21:46;;;;;;;38.63;20.00;;;;;;;11.03;77.56;99270.68;2237185;79;21001;-80
2023/01/02 10:24:47;;;;;;;29.40;19.87;;;;;;;11.06;77.92;99265.51;2236923;80;21572;-81
2023/01/02 10:27:47;;;;;;;28.17;18.40;;;;;;;11.14;77.59;99265.20;2236844;79;20930;-81
2023/01/02 10:30:48;;;;;;;28.17;17.32;;;;;;;11.21;77.50;99259.66;2236642;79;20938;-78
2023/01/02 10:33:48;;;;;;;37.65;20.45;;;;;;;11.30;76.64;99259.41;2236120;79;20899;-83
2023/01/02 10:36:48;;;;;;;27.50;17.02;;;;;;;11.37;76.93;99265.17;2235078;80;20949;-82
2023/01/02 10:39:49;;;;;;;25.20;16.42;;;;;;;11.44;76.83;99265.72;2236109;80;20972;-81
2023/01/02 10:42:49;;;;;;;26.75;16.37;;;;;;;11.50;76.35;99255.78;2237345;80;20985;-80
2023/01/02 10:45:50;;;;;;;24.82;15.28;;;;;;;11.51;76.21;99249.69;2237465;80;20930;-80
2023/01/02 10:48:50;;;;;;;28.27;16.85;;;;;;;11.55;76.18;99248.88;2225824;79;21035;-81
2023/01/02 10:51:50;;;;;;;25.05;16.27;;;;;;;11.57;76.04;99247.16;2219928;80;20939;-82
2023/01/02 10:54:51;;;;;;;21.17;15.32;;;;;;;11.61;76.29;99243.73;2218337;80;20955;-81
2023/01/02 10:57:51;;;;;;;39.25;17.55;;;;;;;11.71;76.05;99236.89;2218919;80;20935;-83
2023/01/02 11:00:52;;;;;;;32.88;16.62;;;;;;;12.18;81.64;99226.20;2218417;80;20959;-81
2023/01/02 11:03:52;;;;;;;29.15;15.95;;;;;;;13.96;78.41;99218.53;2218576;80;21316;-81
2023/01/02 11:06:52;;;;;;;29.05;15.50;;;;;;;15.04;72.34;99204.35;2217896;80;20915;-81
2023/01/02 11:09:53;;;;;;;28.40;16.48;;;;;;;15.71;68.20;99204.30;2219134;80;20948;-81
2023/01/02 11:12:53;;;;;;;23.87;14.95;;;;;;;16.18;66.61;99210.69;2219121;80;21283;-81
2023/01/02 11:15:54;;;;;;;22.13;14.53;;;;;;;16.54;65.95;99212.28;2218477;80;20927;-80
2023/01/02 11:18:54;;;;;;;22.65;14.28;;;;;;;16.89;64.78;99216.46;2218347;80;20996;-81
2023/01/02 11:21:54;;;;;;;44.63;16.05;;;;;;;17.09;63.56;99207.94;2218818;80;21768;-80
2023/01/02 11:24:55;;;;;;;61.33;14.55;;;;;;;17.03;60.49;99203.16;2218174;80;20947;-83
2023/01/02 11:27:55;;;;;;;51.05;15.55;;;;;;;16.94;59.82;99209.83;2218190;80;20919;-82
2023/01/02 11:30:56;;;;;;;33.30;15.07;;;;;;;17.04;59.21;99197.00;2218610;80;21371;-82
2023/01/02 11:33:56;;;;;;;29.57;14.83;;;;;;;17.15;58.04;99210.97;2217783;80;21412;-82
2023/01/02 11:36:56;;;;;;;31.55;14.23;;;;;;;17.23;56.56;99210.45;2217377;80;20923;-83
2023/01/02 11:39:57;;;;;;;30.00;14.43;;;;;;;17.22;56.62;99211.79;2217658;80;20888;-83
2023/01/02 11:46:16;;;;;;;30.82;15.00;;;;;;;17.26;57.05;99208.23;2218729;80;20958;-81
2023/01/02 11:49:16;;;;;;;40.30;14.38;;;;;;;17.23;56.64;99201.23;2221157;80;20971;-81
2023/01/02 11:52:17;;;;;;;37.35;14.15;;;;;;;17.26;56.25;99193.73;2222988;80;21413;-82
2023/01/02 11:55:17;;;;;;;25.60;12.45;;;;;;;17.25;56.95;99199.45;2222386;80;20971;-82
2023/01/02 11:58:17;;;;;;;23.52;12.88;;;;;;;17.34;56.82;99195.44;2222200;80;20911;-82
2023/01/02 12:01:18;;;;;;;21.95;12.43;;;;;;;17.47;56.67;99188.27;2221705;80;20888;-82
2023/01/02 12:04:18;;;;;;;25.05;14.23;;;;;;;17.55;55.79;99186.42;2221350;80;20919;-82
2023/01/02 12:07:18;;;;;;;19.05;13.00;;;;;;;17.58;55.69;99181.11;2221157;80;20978;-82
2023/01/02 12:10:19;;;;;;;22.65;12.58;;;;;;;17.59;56.36;99174.94;2220565;80;20942;-83
2023/01/02 12:13:19;;;;;;;23.10;13.05;;;;;;;17.64;55.41;99169.16;2221547;80;20907;-82
2023/01/02 12:16:20;;;;;;;30.60;13.10;;;;;;;17.58;55.49;99166.59;2221708;80;20919;-81
2023/01/02 12:19:20;;;;;;;35.28;14.10;;;;;;;17.58;55.31;99157.35;2220871;80;20946;-82
2023/01/02 12:22:21;;;;;;;18.60;11.73;;;;;;;17.61;55.57;99163.92;2221863;80;20927;-80
2023/01/02 12:25:21;;;;;;;20.75;12.25;;;;;;;17.59;55.04;99158.22;2221682;80;20942;-81
2023/01/02 12:28:21;;;;;;;33.53;13.10;;;;;;;16.86;54.46;99158.48;2221611;80;20967;-80
2023/01/02 12:31:22;;;;;;;40.05;13.80;;;;;;;16.48;56.19;99155.66;2221361;80;20911;-81
2023/01/02 12:34:22;;;;;;;42.80;15.00;;;;;;;16.45;56.06;99150.83;2221529;80;21310;-80
2023/01/02 12:37:22;;;;;;;57.55;15.32;;;;;;;16.54;56.85;99151.67;2221598;80;20919;-82
2023/01/02 12:40:23;;;;;;;50.60;13.80;;;;;;;16.73;56.63;99144.97;2221011;80;20907;-80
2023/01/02 12:43:23;;;;;;;49.38;14.23;;;;;;;16.88;56.23;99152.75;2221823;80;20995;-81
2023/01/02 12:46:25;;;;;;;22.77;13.15;;;;;;;16.62;55.72;99159.95;2223265;80;20930;-80
2023/01/02 12:49:24;;;;;;;28.85;13.85;;;;;;;16.44;56.34;99174.98;2224745;79;20985;-81
2023/01/02 12:52:24;;;;;;;25.95;12.93;;;;;;;16.38;56.98;99164.92;2225108;80;21453;-82
2023/01/02 12:55:25;;;;;;;32.80;14.07;;;;;;;16.58;57.62;99172.28;2225515;80;20925;-79
2023/01/02 12:58:25;;;;;;;27.67;13.38;;;;;;;16.81;57.17;99154.56;2224672;80;20910;-81
2023/01/02 13:01:26;;;;;;;22.45;12.28;;;;;;;16.91;56.63;99151.41;2224522;80;21377;-81
2023/01/02 13:04:26;;;;;;;16.97;12.28;;;;;;;16.95;56.64;99145.66;2224931;80;20942;-81
2023/01/02 13:07:26;;;;;;;27.37;12.90;;;;;;;16.99;56.82;99148.25;2224557;80;20982;-83
2023/01/02 13:10:27;;;;;;;33.20;12.82;;;;;;;16.93;56.68;99143.48;2224370;80;21714;-81
2023/01/02 13:13:29;;;;;;;53.42;14.50;;;;;;;16.71;56.81;99138.39;2224637;80;20938;-83
2023/01/02 13:16:28;;;;;;;48.85;13.75;;;;;;;16.31;56.96;99150.91;2224575;80;20930;-82
2023/01/02 13:19:28;;;;;;;40.45;13.50;;;;;;;16.19;57.83;99151.87;2224415;80;21724;-80
2023/01/02 13:22:28;;;;;;;28.15;12.73;;;;;;;16.31;58.12;99138.19;2224432;80;21357;-81
2023/01/02 13:25:29;;;;;;;27.87;12.80;;;;;;;16.36;58.56;99132.00;2223664;80;20938;-82
2023/01/02 13:28:29;;;;;;;29.77;13.30;;;;;;;16.43;58.20;99133.70;2224642;80;21018;-82
2023/01/02 13:31:30;;;;;;;28.90;13.80;;;;;;;16.35;58.10;99134.20;2224756;80;20919;-82
2023/01/02 13:34:30;;;;;;;29.12;12.55;;;;;;;16.43;58.43;99135.03;2224691;79;21014;-82
2023/01/02 13:37:30;;;;;;;20.80;12.03;;;;;;;16.53;58.05;99143.33;2224660;80;20930;-81
2023/01/02 13:40:34;;;;;;;18.50;11.60;;;;;;;16.30;58.44;99145.22;2225757;80;20962;-83
2023/01/02 13:43:31;;;;;;;25.62;11.90;;;;;;;15.93;59.33;99150.69;2225107;80;21005;-78
2023/01/02 13:46:32;;;;;;;17.02;11.22;;;;;;;15.83;60.94;99157.32;2225962;80;20957;-81
2023/01/02 13:49:32;;;;;;;17.80;11.30;;;;;;;15.77;60.56;99155.59;2222832;78;20974;-80
2023/01/02 13:52:32;;;;;;;254.80;22.55;;;;;;;15.08;59.11;99152.64;2221137;80;20927;-79
2023/01/02 13:55:33;;;;;;;24.95;11.70;;;;;;;14.20;60.33;99150.80;2220292;80;21358;-79
2023/01/02 13:58:33;;;;;;;14.68;10.20;;;;;;;13.55;61.59;99159.28;2220150;80;20983;-78
2023/01/02 14:01:34;;;;;;;17.77;11.20;;;;;;;13.09;62.98;99174.70;2220794;80;20931;-78